Time;durP1;ratioP1;P1;durP2;ratioP2;P2;SDS_P1;SDS_P2;PMS_P1;PMS_P2;Temp;Humidity;BMP_temperature;BMP_pressure;BME280_temperature;BME280_humidity;BME280_pressure;Samples;Min_cycle;Max_cycle;Signal;HPM_P1;HPM_P2
2022/08/04 00:00:43;;;;;;;12.13;4.30;;;;;;;23.55;68.17;101060.28;5283627;28;20052;-76
2022/08/04 00:03:23;;;;;;;15.70;5.43;;;;;;;23.36;67.95;101055.28;5284202;28;20455;-76
2022/08/04 00:06:08;;;;;;;8.70;4.28;;;;;;;23.33;68.54;101054.59;5284093;28;20048;-76
2022/08/04 00:08:51;;;;;;;9.05;3.92;;;;;;;23.22;68.50;101048.16;5284019;28;20447;-76
2022/08/04 00:11:28;;;;;;;9.25;4.40;;;;;;;23.07;69.24;101052.63;5284319;28;20074;-77
2022/08/04 00:14:09;;;;;;;15.45;4.78;;;;;;;23.10;69.13;101048.88;5283894;28;20421;-77
2022/08/04 00:16:42;;;;;;;12.18;4.57;;;;;;;23.04;69.67;101044.78;5284027;28;20050;-77
2022/08/04 00:19:31;;;;;;;10.88;4.30;;;;;;;23.05;69.56;101041.16;5289598;28;20063;-75
2022/08/04 00:22:07;;;;;;;7.47;3.80;;;;;;;22.76;70.36;101043.81;5293005;28;20372;-76
2022/08/04 00:24:40;;;;;;;9.20;3.90;;;;;;;22.90;70.42;101036.78;5284919;28;20035;-76
2022/08/04 00:27:11;;;;;;;10.55;4.20;;;;;;;22.82;70.29;101037.25;5283772;28;20052;-76
2022/08/04 00:29:45;;;;;;;7.40;3.97;;;;;;;23.01;70.00;101038.81;5283496;28;20052;-76
2022/08/04 00:32:17;;;;;;;9.15;4.43;;;;;;;22.77;70.91;101039.34;5266218;28;20067;-76
2022/08/04 00:34:49;;;;;;;8.75;3.83;;;;;;;22.77;70.75;101039.34;5283527;28;20056;-76
2022/08/04 00:37:21;;;;;;;10.13;4.25;;;;;;;22.78;70.81;101030.41;5282681;28;20471;-76
2022/08/04 00:39:53;;;;;;;;;;;;;;;22.90;67.80;101024.34;5283888;28;20043;-75
2022/08/04 00:42:45;;;;;;;12.80;3.60;;;;;;;22.74;69.79;101032.41;5283060;28;19908;-75
2022/08/04 00:45:35;;;;;;;;;;;;;;;22.88;67.33;101030.72;5283473;28;20028;-76
2022/08/04 00:48:40;;;;;;;10.85;4.05;;;;;;;22.80;68.65;101027.66;5282943;28;20003;-76
2022/08/04 00:51:30;;;;;;;8.30;4.00;;;;;;;22.75;68.88;101030.63;5282784;28;20106;-75
2022/08/04 00:54:09;;;;;;;10.20;3.70;;;;;;;22.81;69.16;101019.59;5264623;28;20094;-75
2022/08/04 00:57:20;;;;;;;8.38;4.18;;;;;;;22.91;67.89;101027.84;5282504;28;20380;-76
2022/08/04 01:00:11;;;;;;;15.60;4.72;;;;;;;22.73;69.09;101019.19;5282829;28;20028;-76
2022/08/04 01:02:54;;;;;;;9.75;4.10;;;;;;;22.77;68.36;101021.59;5283064;28;20487;-76
2022/08/04 01:05:35;;;;;;;10.55;3.80;;;;;;;22.84;68.43;101011.44;5264730;28;20055;-75
2022/08/04 01:08:31;;;;;;;8.60;3.95;;;;;;;22.75;68.54;101012.00;5282242;28;20412;-75
2022/08/04 01:11:14;;;;;;;9.45;3.53;;;;;;;22.74;69.40;101012.94;5281863;28;20036;-76
2022/08/04 01:14:08;;;;;;;7.95;3.60;;;;;;;22.64;69.41;101009.16;5264453;28;20073;-76
2022/08/04 01:16:56;;;;;;;11.70;3.92;;;;;;;22.53;69.73;101009.78;5282136;28;20024;-76
2022/08/04 01:20:01;;;;;;;13.75;4.32;;;;;;;22.66;68.10;101007.25;5281983;28;20089;-75
2022/08/04 01:22:32;;;;;;;15.75;4.38;;;;;;;22.62;68.28;101003.03;5282084;28;20039;-76
2022/08/04 01:25:12;;;;;;;11.90;3.77;;;;;;;22.69;67.83;101005.25;5281665;28;20029;-75
2022/08/04 01:28:14;;;;;;;8.43;3.80;;;;;;;22.61;67.66;101004.84;5281538;28;20047;-76
2022/08/04 01:30:49;;;;;;;12.95;3.83;;;;;;;22.68;67.94;101003.53;5281631;28;20032;-76
2022/08/04 01:33:23;;;;;;;8.88;3.65;;;;;;;22.57;67.76;100990.91;5281746;28;20344;-75
2022/08/04 01:36:00;;;;;;;12.43;3.83;;;;;;;22.72;67.29;100988.28;5282010;28;20032;-75
2022/08/04 01:38:38;;;;;;;12.00;3.75;;;;;;;22.62;66.61;100990.63;5281779;28;20036;-75
2022/08/04 01:41:13;;;;;;;15.65;4.00;;;;;;;22.67;66.38;100990.34;5281711;28;20364;-75
2022/08/04 01:43:45;;;;;;;10.32;3.88;;;;;;;22.74;66.50;100986.38;5281541;28;20367;-75
2022/08/04 01:46:17;;;;;;;8.63;3.78;;;;;;;22.71;66.67;100984.75;5281990;28;20329;-75
2022/08/04 01:48:52;;;;;;;10.23;3.50;;;;;;;22.72;65.39;100986.47;5282048;28;20061;-76
2022/08/04 01:51:24;;;;;;;12.93;3.58;;;;;;;22.72;65.14;100990.94;5283222;28;20091;-75
2022/08/04 01:53:56;;;;;;;12.40;4.97;;;;;;;22.71;64.81;100991.88;5285024;28;20452;-75
2022/08/04 01:56:29;;;;;;;8.73;3.40;;;;;;;22.69;65.03;100988.47;5283555;28;20044;-75
2022/08/04 01:59:02;;;;;;;9.02;3.20;;;;;;;22.75;64.60;100980.13;5281843;28;20495;-75
2022/08/04 02:01:36;;;;;;;9.88;3.33;;;;;;;22.74;65.96;100979.25;5281510;28;20078;-75
2022/08/04 02:04:21;;;;;;;15.07;3.80;;;;;;;22.72;65.31;100969.69;5286304;28;20028;-75
2022/08/04 02:07:22;;;;;;;11.07;3.78;;;;;;;22.67;64.66;100982.34;5285870;28;20108;-75
2022/08/04 02:10:18;;;;;;;11.35;3.60;;;;;;;22.61;64.84;100975.63;5285603;28;20123;-75
2022/08/04 02:12:59;;;;;;;13.05;3.72;;;;;;;22.70;64.95;100983.06;5285782;28;20038;-75
2022/08/04 02:15:50;;;;;;;15.90;4.03;;;;;;;22.71;64.76;100975.94;5285645;28;20075;-75
2022/08/04 02:18:26;;;;;;;9.18;3.70;;;;;;;22.69;64.64;100973.38;5285409;28;20107;-74
2022/08/04 02:21:01;;;;;;;10.43;3.20;;;;;;;22.66;64.62;100973.53;5267265;28;20029;-75
2022/08/04 02:23:39;;;;;;;11.20;4.57;;;;;;;22.73;64.70;100966.06;5285262;28;20099;-75
2022/08/04 02:26:16;;;;;;;12.32;3.30;;;;;;;22.71;64.42;100958.16;5285257;28;20037;-74
2022/08/04 02:29:24;;;;;;;10.80;3.78;;;;;;;22.67;63.96;100961.09;5267046;28;20025;-75
2022/08/04 02:32:02;;;;;;;11.50;3.25;;;;;;;22.62;64.92;100957.88;5284780;28;20047;-75
2022/08/04 02:35:03;;;;;;;10.95;3.00;;;;;;;22.65;63.98;100955.88;5284638;28;20052;-75
2022/08/04 02:37:34;;;;;;;12.15;3.05;;;;;;;22.61;64.04;100953.53;5284010;28;20052;-75
2022/08/04 02:40:08;;;;;;;9.33;3.17;;;;;;;22.61;64.02;100956.19;5287605;28;20361;-75
2022/08/04 02:42:40;;;;;;;11.13;3.72;;;;;;;22.58;64.07;100957.22;5287299;28;20135;-75
2022/08/04 02:45:12;;;;;;;13.70;4.03;;;;;;;22.57;64.46;100951.06;5285114;28;20111;-75
2022/08/04 02:47:44;;;;;;;;;;;;;;;22.54;63.42;100951.25;5285264;28;20086;-74
2022/08/04 02:50:17;;;;;;;9.90;2.70;;;;;;;22.55;63.97;100939.66;5284779;28;19966;-75
2022/08/04 02:52:50;;;;;;;9.50;2.80;;;;;;;22.44;64.17;100943.91;5284836;28;20028;-75
2022/08/04 02:55:24;;;;;;;12.35;3.60;;;;;;;22.46;64.22;100942.88;5284854;28;20104;-75
2022/08/04 02:57:58;;;;;;;10.88;3.88;;;;;;;22.44;65.25;100936.78;5284731;28;20367;-75
2022/08/04 03:00:29;;;;;;;12.30;3.78;;;;;;;22.40;64.45;100929.97;5283985;28;20032;-74
2022/08/04 03:03:04;;;;;;;7.97;3.13;;;;;;;22.41;64.64;100931.66;5284422;28;20043;-74
2022/08/04 03:05:52;;;;;;;12.88;3.33;;;;;;;22.35;64.04;100924.09;5284589;28;20203;-74
2022/08/04 03:08:40;;;;;;;6.40;3.13;;;;;;;22.35;65.05;100924.94;5284190;28;20074;-74
2022/08/04 03:11:25;;;;;;;7.97;2.88;;;;;;;22.34;64.52;100925.03;5266732;28;20037;-74
2022/08/04 03:14:27;;;;;;;12.85;2.90;;;;;;;22.33;64.58;100925.97;5283564;28;20082;-75
2022/08/04 03:17:24;;;;;;;21.45;4.10;;;;;;;22.31;64.01;100926.03;5284233;28;20060;-75
2022/08/04 03:20:13;;;;;;;10.98;2.80;;;;;;;22.30;64.82;100927.00;5266543;28;20048;-74
2022/08/04 03:23:03;;;;;;;13.07;3.70;;;;;;;22.25;64.37;100928.19;5285676;28;20044;-74
2022/08/04 03:26:18;;;;;;;12.68;3.13;;;;;;;22.32;63.99;100956.97;5288068;28;20379;-76
2022/08/04 03:29:17;;;;;;;8.95;3.03;;;;;;;22.30;64.16;100960.66;5287131;28;20032;-74
2022/08/04 03:32:11;;;;;;;12.70;3.30;;;;;;;22.20;64.93;100960.31;5285234;28;20037;-75
2022/08/04 03:35:22;;;;;;;12.07;3.85;;;;;;;22.12;65.85;100954.59;5274292;28;20051;-75
2022/08/04 03:38:12;;;;;;;10.05;3.08;;;;;;;22.07;65.61;100940.75;5285426;28;20032;-75
2022/08/04 03:41:05;;;;;;;10.15;3.20;;;;;;;21.85;66.31;100945.50;5285492;28;20024;-75
2022/08/04 03:43:51;;;;;;;11.90;3.00;;;;;;;21.72;67.41;100946.28;5285939;28;20031;-75
2022/08/04 03:46:25;;;;;;;10.25;3.58;;;;;;;21.59;68.11;100941.72;5285279;28;20044;-75
2022/08/04 03:49:29;;;;;;;8.27;3.15;;;;;;;21.47;68.89;100950.31;5283713;28;20028;-75
2022/08/04 03:53:10;;;;;;;10.13;3.63;;;;;;;21.44;68.56;100953.97;5265395;28;20403;-74
2022/08/04 03:56:03;;;;;;;15.25;3.92;;;;;;;21.38;69.55;100962.31;5259465;28;20111;-75
2022/08/04 03:59:11;;;;;;;15.55;4.07;;;;;;;21.31;69.75;100963.56;5283829;28;20116;-75
2022/08/04 04:02:07;;;;;;;12.98;4.57;;;;;;;21.15;71.08;100973.28;5284027;28;20043;-75
2022/08/04 04:04:44;;;;;;;13.95;4.38;;;;;;;21.06;71.55;100974.66;5283584;28;20028;-74
2022/08/04 04:07:27;;;;;;;13.73;4.07;;;;;;;21.01;71.63;100982.84;5283183;28;20020;-74
2022/08/04 04:10:28;;;;;;;15.18;4.55;;;;;;;20.96;71.23;100979.56;5283625;28;20101;-74
2022/08/04 04:13:15;;;;;;;18.42;4.45;;;;;;;20.94;72.13;100978.81;5265894;28;20067;-75
2022/08/04 04:16:11;;;;;;;14.00;4.43;;;;;;;20.88;72.38;100981.78;5283267;28;20476;-74
2022/08/04 04:18:48;;;;;;;13.48;4.50;;;;;;;21.03;72.80;100977.47;5283134;28;20032;-75
2022/08/04 04:22:11;;;;;;;11.43;4.32;;;;;;;21.06;72.54;100964.91;5283125;28;20039;-76
2022/08/04 04:25:10;;;;;;;15.95;4.30;;;;;;;21.02;72.96;100973.09;5282882;28;20474;-76
2022/08/04 04:27:56;;;;;;;11.60;4.90;;;;;;;21.10;74.16;100977.03;5265175;28;20036;-75
2022/08/04 04:30:36;;;;;;;10.82;4.50;;;;;;;21.07;73.61;100971.91;5265053;28;20432;-75
2022/08/04 04:33:19;;;;;;;13.27;5.10;;;;;;;21.22;74.33;100979.97;5282723;28;20040;-75
2022/08/04 04:36:06;;;;;;;12.60;4.10;;;;;;;21.23;73.95;100979.03;5282685;28;20064;-75
2022/08/04 04:38:43;;;;;;;11.50;4.28;;;;;;;21.15;73.74;100981.25;5282883;28;20028;-74
2022/08/04 04:41:14;;;;;;;13.77;4.63;;;;;;;21.05;73.40;100980.91;5282760;28;20040;-76
2022/08/04 04:44:08;;;;;;;12.40;5.00;;;;;;;21.26;74.00;100977.06;5283422;28;20032;-76
2022/08/04 04:46:58;;;;;;;12.45;4.13;;;;;;;21.37;74.73;100980.94;5282925;28;20025;-76
2022/08/04 04:49:43;;;;;;;13.45;4.55;;;;;;;21.36;74.04;100973.91;5282488;28;20032;-76
2022/08/04 04:52:33;;;;;;;8.27;3.70;;;;;;;21.33;73.32;100974.09;5283755;28;20158;-76
2022/08/04 04:55:07;;;;;;;9.73;4.70;;;;;;;21.42;73.63;100973.59;5286922;28;20060;-76
2022/08/04 04:57:40;;;;;;;14.75;4.88;;;;;;;21.56;74.82;100972.81;5288106;28;20036;-76
2022/08/04 05:00:12;;;;;;;12.05;4.63;;;;;;;21.56;74.84;100978.13;5285283;28;20033;-76
2022/08/04 05:03:22;;;;;;;7.53;4.10;;;;;;;21.56;74.17;100994.94;5282374;28;20039;-75
2022/08/04 05:06:15;;;;;;;16.00;5.00;;;;;;;21.54;73.87;100994.16;5282244;28;20460;-75
2022/08/04 05:09:15;;;;;;;12.07;4.85;;;;;;;21.65;73.87;100991.78;5282029;28;20036;-75
2022/08/04 05:12:13;;;;;;;13.00;4.47;;;;;;;21.76;74.81;100990.28;5264069;28;20029;-75
2022/08/04 05:14:47;;;;;;;8.45;3.97;;;;;;;21.79;75.78;100984.81;5282072;28;20032;-76
2022/08/04 05:17:28;;;;;;;11.27;4.10;;;;;;;21.76;76.76;100980.53;5281799;28;20032;-75
2022/08/04 05:20:12;;;;;;;16.90;5.07;;;;;;;21.83;74.85;100986.34;5281877;28;20161;-75
2022/08/04 05:22:52;;;;;;;10.43;4.57;;;;;;;21.81;73.21;100994.38;5281602;28;20055;-76
2022/08/04 05:25:39;;;;;;;10.63;4.32;;;;;;;21.83;73.81;100989.00;5282006;28;20077;-76
2022/08/04 05:28:47;;;;;;;13.20;5.75;;;;;;;22.05;73.05;100999.25;5282011;28;20028;-76
2022/08/04 05:31:41;;;;;;;12.65;5.75;;;;;;;22.20;75.20;100987.75;5239601;28;20054;-76
2022/08/04 05:34:17;;;;;;;11.70;4.18;;;;;;;22.29;76.88;100988.16;5282076;28;20052;-76
2022/08/04 05:36:54;;;;;;;9.10;5.28;;;;;;;22.32;75.66;100988.84;5281589;28;20035;-76
2022/08/04 05:39:29;;;;;;;12.25;4.28;;;;;;;22.47;76.18;100986.22;5283585;28;20039;-76
2022/08/04 05:42:03;;;;;;;13.48;4.00;;;;;;;22.50;75.36;100973.63;5286055;28;20032;-76
2022/08/04 05:44:36;;;;;;;13.15;4.95;;;;;;;22.58;73.62;100974.00;5285150;28;20040;-76
2022/08/04 05:47:10;;;;;;;15.93;4.70;;;;;;;22.65;74.95;100968.31;5283282;28;20459;-76
2022/08/04 05:49:43;;;;;;;15.50;4.63;;;;;;;22.74;74.66;100973.94;5281970;28;20029;-76
2022/08/04 05:52:16;;;;;;;11.38;4.68;;;;;;;22.83;73.29;100969.00;5282029;28;20166;-76
2022/08/04 05:54:51;;;;;;;12.20;4.50;;;;;;;22.89;72.65;100979.25;5263236;28;20025;-76
2022/08/04 05:57:24;;;;;;;16.95;5.47;;;;;;;22.91;71.46;100972.91;5281423;28;20047;-76
2022/08/04 05:59:58;;;;;;;12.88;4.57;;;;;;;23.02;73.26;100966.91;5263420;28;20537;-76
2022/08/04 06:02:31;;;;;;;10.88;4.88;;;;;;;23.09;70.68;100980.72;5281408;28;20033;-76
2022/08/04 06:05:06;;;;;;;16.25;5.30;;;;;;;23.10;69.55;100980.63;5281437;28;20039;-76
2022/08/04 06:07:38;;;;;;;11.13;5.68;;;;;;;23.11;69.40;100982.31;5281306;28;20123;-76
2022/08/04 06:10:09;;;;;;;16.37;5.67;;;;;;;23.18;70.69;100980.13;5263067;28;20128;-76
2022/08/04 06:12:48;;;;;;;10.57;5.60;;;;;;;23.25;70.08;100981.47;5280766;28;20279;-75
2022/08/04 06:15:22;;;;;;;26.05;6.07;;;;;;;23.33;70.58;100980.13;5280861;28;20024;-75
2022/08/04 06:18:00;;;;;;;13.82;5.55;;;;;;;23.20;70.31;100986.22;5281101;28;20040;-75
2022/08/04 06:20:35;;;;;;;19.52;6.68;;;;;;;23.13;70.49;100976.91;5282252;28;20066;-75
2022/08/04 06:23:10;;;;;;;18.75;7.22;;;;;;;22.97;70.01;100979.63;5284894;28;20043;-75
2022/08/04 06:25:51;;;;;;;15.75;7.20;;;;;;;23.08;70.43;100992.31;5288529;28;20032;-75
2022/08/04 06:28:25;;;;;;;22.85;7.70;;;;;;;23.09;70.11;100984.22;5287322;28;20028;-75
2022/08/04 06:31:02;;;;;;;21.63;7.93;;;;;;;23.28;69.18;100983.06;5284551;28;20075;-75
2022/08/04 06:33:36;;;;;;;16.80;6.78;;;;;;;23.43;68.46;100989.25;5281833;28;20507;-76
2022/08/04 06:36:09;;;;;;;13.48;7.82;;;;;;;23.51;67.65;100994.91;5280805;28;20088;-76
2022/08/04 06:38:42;;;;;;;17.67;8.13;;;;;;;23.72;68.75;100999.81;5281236;28;20039;-76
2022/08/04 06:41:14;;;;;;;13.82;7.45;;;;;;;23.93;70.86;101005.59;5281038;28;20167;-76
2022/08/04 06:43:46;;;;;;;16.63;8.18;;;;;;;24.11;64.65;101004.34;5280874;28;20112;-76
2022/08/04 06:46:18;;;;;;;15.25;8.82;;;;;;;24.15;64.38;101002.34;5280947;28;20112;-76
2022/08/04 06:48:50;;;;;;;;;;;;;;;24.55;64.01;101008.50;5283319;28;20040;-75
2022/08/04 06:51:22;;;;;;;14.20;7.60;;;;;;;24.33;67.99;101013.59;5266284;28;19921;-76
2022/08/04 06:53:54;;;;;;;16.77;8.88;;;;;;;24.47;63.35;101013.50;5284687;28;20125;-76
2022/08/04 06:56:28;;;;;;;12.17;7.37;;;;;;;24.44;64.58;101010.19;5284731;28;20028;-76
2022/08/04 06:59:01;;;;;;;18.58;7.80;;;;;;;24.44;63.68;101010.19;5284810;28;20293;-76
2022/08/04 07:01:36;;;;;;;13.57;7.25;;;;;;;24.34;63.75;101012.63;5284599;28;20086;-76
2022/08/04 07:04:09;;;;;;;16.48;8.60;;;;;;;24.24;64.86;101011.53;5284870;28;20028;-76
2022/08/04 07:06:41;;;;;;;14.93;8.48;;;;;;;24.02;65.00;101013.81;5284388;28;20031;-76
2022/08/04 07:09:13;;;;;;;17.20;8.85;;;;;;;23.92;65.86;101003.88;5284261;28;20033;-76
2022/08/04 07:11:46;;;;;;;18.10;8.43;;;;;;;23.81;67.06;101009.84;5284021;28;20033;-76
2022/08/04 07:14:18;;;;;;;15.43;9.68;;;;;;;23.74;67.57;101009.41;5284640;28;20127;-76
2022/08/04 07:16:50;;;;;;;17.63;8.77;;;;;;;23.74;67.19;101011.22;5266080;28;20102;-76
2022/08/04 07:19:22;;;;;;;17.83;8.25;;;;;;;23.81;68.18;101013.38;5284543;28;20555;-76
2022/08/04 07:21:54;;;;;;;20.80;9.40;;;;;;;23.80;67.67;101009.00;5284213;28;20036;-76
2022/08/04 07:24:30;;;;;;;23.02;8.90;;;;;;;23.92;67.31;101014.50;5283975;28;20032;-77
2022/08/04 07:27:02;;;;;;;17.38;8.23;;;;;;;23.99;67.75;101019.34;5284571;28;20100;-76
2022/08/04 07:29:35;;;;;;;20.65;9.20;;;;;;;24.08;68.69;101019.69;5284087;28;20025;-76
2022/08/04 07:32:09;;;;;;;13.13;8.00;;;;;;;24.11;67.78;101025.66;5284204;28;20070;-77
2022/08/04 07:34:42;;;;;;;15.30;8.00;;;;;;;24.24;67.08;101027.53;5283510;28;20029;-76
2022/08/04 07:37:13;;;;;;;;;;;;;;;24.57;66.22;101033.28;5284687;28;20069;-76
2022/08/04 07:39:45;;;;;;;13.37;8.37;;;;;;;24.54;65.08;101029.94;5283712;28;20102;-76
2022/08/04 07:42:18;;;;;;;19.42;9.98;;;;;;;24.60;65.78;101024.22;5283709;28;20108;-76
2022/08/04 07:44:50;;;;;;;16.15;9.60;;;;;;;24.75;65.30;101024.97;5284069;28;20052;-76
2022/08/04 07:47:21;;;;;;;20.38;10.38;;;;;;;24.84;66.20;101028.81;5284120;28;20059;-77
2022/08/04 07:49:54;;;;;;;15.30;8.80;;;;;;;24.94;67.18;101024.56;5265835;28;20043;-77
2022/08/04 07:52:26;;;;;;;17.92;9.65;;;;;;;25.15;63.60;101024.00;5283754;28;20052;-77
2022/08/04 07:54:59;;;;;;;18.70;9.55;;;;;;;25.20;62.57;101027.22;5284131;28;20063;-78
2022/08/04 07:57:30;;;;;;;15.63;9.13;;;;;;;25.18;62.22;101024.66;5274057;28;20068;-78
2022/08/04 08:00:04;;;;;;;16.02;9.10;;;;;;;25.29;63.47;101031.91;5294852;28;20064;-76
2022/08/04 08:02:37;;;;;;;14.35;9.25;;;;;;;25.16;63.12;101026.56;5284453;28;20092;-77
2022/08/04 08:05:17;;;;;;;15.07;9.30;;;;;;;25.28;63.56;101039.06;5283754;28;20167;-77
2022/08/04 08:07:49;;;;;;;17.15;8.98;;;;;;;25.37;65.98;101036.72;5283551;28;20539;-77
2022/08/04 08:10:21;;;;;;;15.27;9.38;;;;;;;25.60;64.72;101048.38;5283214;28;20079;-76
2022/08/04 08:12:53;;;;;;;15.52;9.27;;;;;;;25.61;64.10;101044.78;5283587;28;20579;-76
2022/08/04 08:15:24;;;;;;;;;;;;;;;25.92;62.71;101046.06;5266255;28;20545;-75
2022/08/04 08:17:56;;;;;;;15.63;8.10;;;;;;;25.79;63.79;101056.78;5283905;28;20007;-76
2022/08/04 08:20:31;;;;;;;15.90;9.05;;;;;;;25.92;63.09;101047.88;5265857;28;20044;-77
2022/08/04 08:23:02;;;;;;;22.13;8.85;;;;;;;26.30;61.28;101054.91;5284399;28;20032;-77
2022/08/04 08:25:35;;;;;;;14.23;7.45;;;;;;;26.45;60.24;101045.69;5283341;28;20036;-77
2022/08/04 08:28:06;;;;;;;8.95;7.38;;;;;;;26.49;59.90;101046.34;5265675;28;20040;-78
2022/08/04 08:30:38;;;;;;;15.60;7.22;;;;;;;26.63;60.30;101053.28;5265005;28;20032;-77
2022/08/04 08:33:13;;;;;;;17.02;7.28;;;;;;;26.62;59.21;101054.28;5283157;28;20367;-77
2022/08/04 08:36:03;;;;;;;8.95;5.00;;;;;;;26.55;59.66;101057.41;5265390;28;20040;-78
2022/08/04 08:38:44;;;;;;;14.23;4.43;;;;;;;26.71;58.34;101065.16;5265178;28;20044;-78
2022/08/04 08:41:30;;;;;;;14.73;4.20;;;;;;;26.66;56.02;101077.16;5283435;28;20040;-78
2022/08/04 08:44:49;;;;;;;11.55;3.70;;;;;;;27.31;57.42;101081.09;5287801;28;20025;-77
2022/08/04 08:47:49;;;;;;;9.43;4.00;;;;;;;27.15;56.50;101076.06;5262539;28;20063;-77
2022/08/04 08:50:40;;;;;;;10.05;3.65;;;;;;;27.57;57.10;101072.81;5283520;28;20020;-77
2022/08/04 08:53:33;;;;;;;11.93;3.27;;;;;;;27.41;54.12;101091.91;5282550;28;20040;-78
2022/08/04 08:56:38;;;;;;;10.25;4.38;;;;;;;27.56;54.37;101082.63;5282205;28;20047;-78
2022/08/04 08:59:35;;;;;;;8.63;2.45;;;;;;;27.81;54.48;101084.19;5282530;28;20021;-78
2022/08/04 09:02:40;;;;;;;9.13;3.03;;;;;;;28.04;52.88;101076.13;5245802;28;20055;-78
2022/08/04 09:06:13;;;;;;;9.27;2.90;;;;;;;28.54;51.49;101086.31;5282458;28;20029;-78
2022/08/04 09:09:13;;;;;;;10.15;3.30;;;;;;;28.96;50.41;101097.06;5196452;28;20259;-77
2022/08/04 09:12:32;;;;;;;8.80;3.28;;;;;;;28.97;49.96;101097.94;5181800;28;20139;-77
2022/08/04 09:15:17;;;;;;;7.82;2.55;;;;;;;28.84;49.88;101093.63;5206164;28;20436;-77
2022/08/04 09:18:00;;;;;;;15.82;4.25;;;;;;;28.72;48.75;101098.22;5282038;28;20044;-77
2022/08/04 09:20:49;;;;;;;13.73;3.15;;;;;;;28.73;49.26;101093.69;5281799;28;20037;-77
2022/08/04 09:23:50;;;;;;;7.97;3.03;;;;;;;29.23;50.93;101093.88;5281958;28;20047;-76
2022/08/04 09:26:38;;;;;;;6.82;2.83;;;;;;;29.00;48.71;101100.38;5281988;28;20040;-76
2022/08/04 09:29:16;;;;;;;9.43;2.58;;;;;;;29.17;48.90;101104.25;5282394;28;20364;-76
2022/08/04 09:32:02;;;;;;;9.35;3.42;;;;;;;29.23;48.71;101109.13;5285501;28;20399;-76
2022/08/04 09:34:50;;;;;;;11.57;2.83;;;;;;;28.74;47.30;101112.34;5285696;28;20099;-76
2022/08/04 09:37:41;;;;;;;11.77;2.90;;;;;;;28.46;48.75;101111.06;5281527;28;20027;-77
2022/08/04 09:40:21;;;;;;;8.85;2.88;;;;;;;28.21;48.49;101114.97;5282020;28;20040;-77
2022/08/04 09:43:19;;;;;;;13.77;3.42;;;;;;;28.06;47.10;101134.97;5281996;28;20112;-77
2022/08/04 09:45:53;;;;;;;11.57;3.38;;;;;;;27.74;47.77;101125.88;5281693;28;20032;-77
2022/08/04 09:48:35;;;;;;;8.65;3.03;;;;;;;27.76;48.93;101128.41;5281477;28;20082;-77
2022/08/04 09:51:28;;;;;;;8.68;2.75;;;;;;;27.91;47.67;101137.88;5263530;28;20048;-77
2022/08/04 09:54:11;;;;;;;;;;;;;;;28.37;47.26;101138.69;5282140;28;20035;-76
2022/08/04 09:57:21;;;;;;;11.20;2.85;;;;;;;27.95;48.19;101134.03;5263952;28;20379;-77
2022/08/04 10:00:01;;;;;;;9.38;2.67;;;;;;;27.56;49.54;101140.69;5281649;28;20035;-77
2022/08/04 10:02:38;;;;;;;16.60;2.72;;;;;;;27.20;50.41;101151.47;5281153;28;20025;-77
2022/08/04 10:05:21;;;;;;;14.63;3.22;;;;;;;26.93;51.38;101155.31;5281531;28;20317;-77
2022/08/04 10:08:08;;;;;;;11.45;3.00;;;;;;;26.57;52.58;101151.72;5281522;28;20431;-77
2022/08/04 10:11:10;;;;;;;10.93;3.40;;;;;;;26.20;54.52;101135.75;5281422;28;20034;-76
2022/08/04 10:14:00;;;;;;;10.23;3.00;;;;;;;26.03;56.06;101141.44;5250071;28;20074;-76
2022/08/04 10:16:43;;;;;;;13.50;3.47;;;;;;;25.65;57.47;101164.56;5281361;28;20151;-76
2022/08/04 10:19:30;;;;;;;9.85;3.20;;;;;;;25.42;59.00;101190.22;5281272;28;20060;-76
2022/08/04 10:22:20;;;;;;;7.50;3.28;;;;;;;25.19;59.72;101220.25;5281505;28;20036;-76
2022/08/04 10:25:23;;;;;;;12.00;3.28;;;;;;;25.09;60.49;101241.34;5285306;28;20099;-77
2022/08/04 10:27:59;;;;;;;11.60;3.20;;;;;;;24.97;62.20;101247.50;5285076;28;20059;-77
2022/08/04 10:30:35;;;;;;;15.20;3.67;;;;;;;24.70;66.07;101216.38;5285144;28;20343;-78
2022/08/04 10:33:21;;;;;;;15.77;3.70;;;;;;;24.44;68.96;101228.69;5285563;28;20440;-75
2022/08/04 10:36:00;;;;;;;15.18;3.95;;;;;;;24.29;70.22;101220.72;5285512;28;20028;-76
2022/08/04 10:38:54;;;;;;;9.18;3.60;;;;;;;24.17;70.91;101211.69;5267261;28;20028;-76
2022/08/04 10:41:41;;;;;;;10.88;3.97;;;;;;;24.29;74.07;101180.75;5285689;28;20033;-75
2022/08/04 10:44:27;;;;;;;16.42;4.10;;;;;;;24.27;75.60;101157.84;5285503;28;20024;-76
2022/08/04 10:47:06;;;;;;;9.98;3.60;;;;;;;24.52;76.95;101139.31;5266653;28;20107;-75
2022/08/04 10:49:44;;;;;;;12.10;4.43;;;;;;;24.54;77.18;101134.72;5266714;28;20025;-73
2022/08/04 10:52:37;;;;;;;13.57;4.25;;;;;;;24.96;76.96;101147.97;5285300;28;20064;-75
2022/08/04 10:55:22;;;;;;;15.25;3.80;;;;;;;25.77;73.72;101156.66;5285101;28;20036;-75
2022/08/04 10:58:01;;;;;;;9.32;3.40;;;;;;;28.15;72.40;101150.31;5285367;28;20028;-74
2022/08/04 11:00:37;;;;;;;10.90;4.00;;;;;;;29.13;62.59;101146.63;5287414;28;20085;-74
2022/08/04 11:03:20;;;;;;;9.13;3.60;;;;;;;28.92;59.47;101170.78;5288074;28;20032;-75
2022/08/04 11:05:51;;;;;;;8.70;3.97;;;;;;;27.89;64.53;101174.66;5290147;28;20024;-75
2022/08/04 11:08:30;;;;;;;;;;;;;;;28.09;61.08;101185.63;5285640;28;20111;-75
2022/08/04 11:11:08;;;;;;;11.77;4.00;;;;;;;26.27;66.56;101175.38;5266578;28;19949;-75
2022/08/04 11:13:53;;;;;;;10.25;3.53;;;;;;;26.09;71.25;101165.06;5284601;28;20021;-75
2022/08/04 11:17:04;;;;;;;10.00;4.00;;;;;;;25.96;70.36;101159.75;5284966;28;20039;-75
2022/08/04 11:19:47;;;;;;;12.50;4.05;;;;;;;25.74;71.21;101156.88;5285019;28;20032;-75
2022/08/04 11:22:21;;;;;;;8.75;4.78;;;;;;;25.60;73.27;101160.50;5284774;28;20440;-75
2022/08/04 11:25:05;;;;;;;8.07;4.30;;;;;;;25.92;72.48;101155.56;5284068;28;20029;-75
2022/08/04 11:28:00;;;;;;;8.63;4.65;;;;;;;26.72;73.32;101148.91;5284556;28;20037;-75
2022/08/04 11:30:40;;;;;;;13.82;4.40;;;;;;;27.14;68.33;101151.94;5284543;28;20467;-75
2022/08/04 11:33:14;;;;;;;12.15;4.93;;;;;;;27.57;65.57;101151.28;5284390;28;20122;-76
2022/08/04 11:36:14;;;;;;;11.90;4.47;;;;;;;29.86;61.40;101165.41;5282672;28;20044;-76
2022/08/04 11:38:55;;;;;;;7.78;3.80;;;;;;;31.66;50.22;101160.59;5283871;28;20043;-76
2022/08/04 11:41:40;;;;;;;9.90;3.70;;;;;;;33.66;48.18;101167.50;5284101;28;20361;-76
2022/08/04 11:44:22;;;;;;;10.77;3.30;;;;;;;34.63;45.48;101153.59;5284363;28;20024;-75
2022/08/04 11:46:59;;;;;;;4.57;2.90;;;;;;;34.69;43.77;101170.00;5284938;28;20029;-76
2022/08/04 11:49:42;;;;;;;9.60;3.83;;;;;;;33.98;43.06;101179.50;5291637;28;20032;-77
2022/08/04 11:52:18;;;;;;;6.13;3.20;;;;;;;35.05;38.41;101160.69;5291747;28;20053;-76
2022/08/04 11:54:50;;;;;;;7.40;2.65;;;;;;;34.17;38.21;101159.44;5284436;28;20112;-77
2022/08/04 11:57:23;;;;;;;12.68;3.50;;;;;;;32.59;42.09;101152.34;5249302;28;20032;-77
2022/08/04 11:59:57;;;;;;;4.93;2.97;;;;;;;31.49;45.47;101168.41;5283829;28;20032;-77
2022/08/04 12:02:58;;;;;;;6.90;3.20;;;;;;;31.93;46.48;101155.22;5265630;28;20040;-77
2022/08/04 12:05:40;;;;;;;8.23;3.85;;;;;;;33.48;41.88;101159.47;5283437;28;20080;-76
2022/08/04 12:08:25;;;;;;;5.20;2.58;;;;;;;34.95;40.00;101173.59;5283678;28;20043;-78
2022/08/04 12:11:20;;;;;;;6.80;2.72;;;;;;;35.89;36.61;101173.88;5283736;28;20035;-78
2022/08/04 12:14:19;;;;;;;7.72;3.35;;;;;;;35.39;38.90;101171.34;5283474;28;20060;-78
2022/08/04 12:17:01;;;;;;;6.43;3.55;;;;;;;34.39;41.06;101176.06;5283227;28;20035;-78
2022/08/04 12:19:51;;;;;;;6.93;2.50;;;;;;;33.73;40.44;101179.41;5283605;28;20036;-78
2022/08/04 12:22:31;;;;;;;5.82;2.78;;;;;;;32.13;43.25;101180.22;5283631;28;20359;-77
2022/08/04 12:25:12;;;;;;;9.23;2.78;;;;;;;31.28;44.95;101179.41;5265688;28;20032;-78
2022/08/04 12:27:54;;;;;;;10.52;2.78;;;;;;;30.75;50.56;101193.31;5283795;28;20075;-78
2022/08/04 12:30:29;;;;;;;6.20;3.00;;;;;;;29.58;47.58;101202.72;5283739;28;20032;-79
2022/08/04 12:33:14;;;;;;;7.15;3.33;;;;;;;29.20;51.08;101189.94;5286384;28;20028;-79